sensor_id;sensor_type;location;lat;lon;timestamp;temperature;humidity
14755;DHT22;7469;50.906;6.952;2023-04-15T00:01:09;7.60;93.60
14755;DHT22;7469;50.906;6.952;2023-04-15T00:03:37;7.60;94.00
14755;DHT22;7469;50.906;6.952;2023-04-15T00:06:06;7.50;94.40
14755;DHT22;7469;50.906;6.952;2023-04-15T00:08:34;7.50;94.80
14755;DHT22;7469;50.906;6.952;2023-04-15T00:11:02;7.50;95.50
14755;DHT22;7469;50.906;6.952;2023-04-15T00:13:31;7.40;95.80
14755;DHT22;7469;50.906;6.952;2023-04-15T00:15:59;7.30;96.20
14755;DHT22;7469;50.906;6.952;2023-04-15T00:18:29;7.30;96.60
14755;DHT22;7469;50.906;6.952;2023-04-15T00:20:57;7.20;97.00
14755;DHT22;7469;50.906;6.952;2023-04-15T00:23:26;7.20;97.40
14755;DHT22;7469;50.906;6.952;2023-04-15T00:25:54;7.20;97.70
14755;DHT22;7469;50.906;6.952;2023-04-15T00:28:22;7.20;98.20
14755;DHT22;7469;50.906;6.952;2023-04-15T00:30:50;7.20;98.60
14755;DHT22;7469;50.906;6.952;2023-04-15T00:33:18;7.10;98.90
14755;DHT22;7469;50.906;6.952;2023-04-15T00:35:47;7.10;99.30
14755;DHT22;7469;50.906;6.952;2023-04-15T00:38:15;7.10;99.90
14755;DHT22;7469;50.906;6.952;2023-04-15T00:40:43;7.00;99.90
14755;DHT22;7469;50.906;6.952;2023-04-15T00:43:11;7.00;99.90
14755;DHT22;7469;50.906;6.952;2023-04-15T00:45:39;7.00;99.90
14755;DHT22;7469;50.906;6.952;2023-04-15T00:48:07;7.00;99.90
14755;DHT22;7469;50.906;6.952;2023-04-15T00:50:36;6.90;99.90
14755;DHT22;7469;50.906;6.952;2023-04-15T00:53:05;6.90;99.90
14755;DHT22;7469;50.906;6.952;2023-04-15T00:55:33;6.90;99.90
14755;DHT22;7469;50.906;6.952;2023-04-15T00:58:01;6.90;99.90
14755;DHT22;7469;50.906;6.952;2023-04-15T01:00:29;6.80;99.90
14755;DHT22;7469;50.906;6.952;2023-04-15T01:02:57;6.80;99.90
14755;DHT22;7469;50.906;6.952;2023-04-15T01:05:26;6.80;99.90
14755;DHT22;7469;50.906;6.952;2023-04-15T01:07:55;6.70;99.90
14755;DHT22;7469;50.906;6.952;2023-04-15T01:10:24;6.70;99.90
14755;DHT22;7469;50.906;6.952;2023-04-15T01:12:52;6.70;99.90
14755;DHT22;7469;50.906;6.952;2023-04-15T01:15:20;6.70;99.90
14755;DHT22;7469;50.906;6.952;2023-04-15T01:17:49;6.70;99.90
14755;DHT22;7469;50.906;6.952;2023-04-15T01:20:17;6.60;99.90
14755;DHT22;7469;50.906;6.952;2023-04-15T01:22:45;6.70;99.90
14755;DHT22;7469;50.906;6.952;2023-04-15T01:25:17;6.60;99.90
14755;DHT22;7469;50.906;6.952;2023-04-15T01:27:47;6.60;99.90
14755;DHT22;7469;50.906;6.952;2023-04-15T01:30:15;6.60;99.90
14755;DHT22;7469;50.906;6.952;2023-04-15T01:32:43;6.40;99.90
14755;DHT22;7469;50.906;6.952;2023-04-15T01:35:11;6.50;99.90
14755;DHT22;7469;50.906;6.952;2023-04-15T01:37:39;6.50;99.90
14755;DHT22;7469;50.906;6.952;2023-04-15T01:40:08;6.50;99.90
14755;DHT22;7469;50.906;6.952;2023-04-15T01:42:36;6.40;99.90
14755;DHT22;7469;50.906;6.952;2023-04-15T01:45:06;6.40;99.90
14755;DHT22;7469;50.906;6.952;2023-04-15T01:47:34;6.40;99.90
14755;DHT22;7469;50.906;6.952;2023-04-15T01:50:04;6.30;99.90
14755;DHT22;7469;50.906;6.952;2023-04-15T01:52:32;6.30;99.90
14755;DHT22;7469;50.906;6.952;2023-04-15T01:55:00;6.30;99.90
14755;DHT22;7469;50.906;6.952;2023-04-15T01:57:28;6.30;99.90
14755;DHT22;7469;50.906;6.952;2023-04-15T01:59:56;6.20;99.90
14755;DHT22;7469;50.906;6.952;2023-04-15T02:02:25;6.20;99.90
14755;DHT22;7469;50.906;6.952;2023-04-15T02:04:53;6.20;99.90
14755;DHT22;7469;50.906;6.952;2023-04-15T02:07:21;6.20;99.90
14755;DHT22;7469;50.906;6.952;2023-04-15T02:09:49;6.20;99.90
14755;DHT22;7469;50.906;6.952;2023-04-15T02:12:17;6.20;99.90
14755;DHT22;7469;50.906;6.952;2023-04-15T02:14:45;6.20;99.90
14755;DHT22;7469;50.906;6.952;2023-04-15T02:17:13;6.20;99.90
14755;DHT22;7469;50.906;6.952;2023-04-15T02:19:43;6.20;99.90
14755;DHT22;7469;50.906;6.952;2023-04-15T02:22:11;6.10;99.90
14755;DHT22;7469;50.906;6.952;2023-04-15T02:24:44;6.10;99.90
14755;DHT22;7469;50.906;6.952;2023-04-15T02:27:15;6.10;99.90
14755;DHT22;7469;50.906;6.952;2023-04-15T02:29:44;6.10;99.90
14755;DHT22;7469;50.906;6.952;2023-04-15T02:32:12;6.10;99.90
14755;DHT22;7469;50.906;6.952;2023-04-15T02:34:40;6.10;99.90
14755;DHT22;7469;50.906;6.952;2023-04-15T02:37:11;6.10;99.90
14755;DHT22;7469;50.906;6.952;2023-04-15T02:39:39;6.10;99.90
14755;DHT22;7469;50.906;6.952;2023-04-15T02:42:06;6.10;99.90
14755;DHT22;7469;50.906;6.952;2023-04-15T02:44:34;6.10;99.90
14755;DHT22;7469;50.906;6.952;2023-04-15T02:47:03;6.10;99.90
14755;DHT22;7469;50.906;6.952;2023-04-15T02:49:32;6.00;99.90
14755;DHT22;7469;50.906;6.952;2023-04-15T02:52:00;6.00;99.90
14755;DHT22;7469;50.906;6.952;2023-04-15T02:54:29;6.00;99.90
14755;DHT22;7469;50.906;6.952;2023-04-15T02:56:59;6.00;99.90
14755;DHT22;7469;50.906;6.952;2023-04-15T02:59:27;6.00;99.90
14755;DHT22;7469;50.906;6.952;2023-04-15T03:01:55;6.00;99.90
14755;DHT22;7469;50.906;6.952;2023-04-15T03:04:26;5.90;99.90
14755;DHT22;7469;50.906;6.952;2023-04-15T03:06:55;5.90;99.90
14755;DHT22;7469;50.906;6.952;2023-04-15T03:09:23;5.90;99.90
14755;DHT22;7469;50.906;6.952;2023-04-15T03:11:53;5.90;99.90
14755;DHT22;7469;50.906;6.952;2023-04-15T03:14:22;5.90;99.90
14755;DHT22;7469;50.906;6.952;2023-04-15T03:16:50;5.90;99.90
14755;DHT22;7469;50.906;6.952;2023-04-15T03:19:18;5.80;99.90
14755;DHT22;7469;50.906;6.952;2023-04-15T03:21:46;5.80;99.90
14755;DHT22;7469;50.906;6.952;2023-04-15T03:24:14;5.80;99.90
14755;DHT22;7469;50.906;6.952;2023-04-15T03:26:42;5.90;99.90
14755;DHT22;7469;50.906;6.952;2023-04-15T03:29:11;5.70;99.90
14755;DHT22;7469;50.906;6.952;2023-04-15T03:31:39;5.80;99.90
14755;DHT22;7469;50.906;6.952;2023-04-15T03:34:07;5.80;99.90
14755;DHT22;7469;50.906;6.952;2023-04-15T03:36:35;5.80;99.90
14755;DHT22;7469;50.906;6.952;2023-04-15T03:39:03;5.80;99.90
14755;DHT22;7469;50.906;6.952;2023-04-15T03:41:31;5.80;99.90
14755;DHT22;7469;50.906;6.952;2023-04-15T03:43:59;5.70;99.90
14755;DHT22;7469;50.906;6.952;2023-04-15T03:46:28;5.70;99.90
14755;DHT22;7469;50.906;6.952;2023-04-15T03:48:56;5.80;99.90
14755;DHT22;7469;50.906;6.952;2023-04-15T03:51:24;5.80;99.90
14755;DHT22;7469;50.906;6.952;2023-04-15T03:53:53;5.80;99.90
14755;DHT22;7469;50.906;6.952;2023-04-15T03:56:21;5.80;99.90
14755;DHT22;7469;50.906;6.952;2023-04-15T03:58:49;5.70;99.90
14755;DHT22;7469;50.906;6.952;2023-04-15T04:01:17;5.70;99.90
14755;DHT22;7469;50.906;6.952;2023-04-15T04:03:47;5.60;99.90
14755;DHT22;7469;50.906;6.952;2023-04-15T04:06:15;5.60;99.90
14755;DHT22;7469;50.906;6.952;2023-04-15T04:08:43;5.60;99.90
14755;DHT22;7469;50.906;6.952;2023-04-15T04:11:11;5.60;99.90
14755;DHT22;7469;50.906;6.952;2023-04-15T04:13:39;5.50;99.90
14755;DHT22;7469;50.906;6.952;2023-04-15T04:16:07;5.50;99.90
14755;DHT22;7469;50.906;6.952;2023-04-15T04:18:35;5.50;99.90
14755;DHT22;7469;50.906;6.952;2023-04-15T04:21:05;5.40;99.90
14755;DHT22;7469;50.906;6.952;2023-04-15T04:23:33;5.40;99.90
14755;DHT22;7469;50.906;6.952;2023-04-15T04:26:01;5.40;99.90
14755;DHT22;7469;50.906;6.952;2023-04-15T04:28:29;5.40;99.90
14755;DHT22;7469;50.906;6.952;2023-04-15T04:30:57;5.40;99.90
14755;DHT22;7469;50.906;6.952;2023-04-15T04:33:25;5.40;99.90
14755;DHT22;7469;50.906;6.952;2023-04-15T04:35:53;5.40;99.90
14755;DHT22;7469;50.906;6.952;2023-04-15T04:38:22;5.30;99.90
14755;DHT22;7469;50.906;6.952;2023-04-15T04:40:50;5.30;99.90
14755;DHT22;7469;50.906;6.952;2023-04-15T04:43:18;5.30;99.90
14755;DHT22;7469;50.906;6.952;2023-04-15T04:45:46;5.30;99.90
14755;DHT22;7469;50.906;6.952;2023-04-15T04:48:14;5.30;99.90
14755;DHT22;7469;50.906;6.952;2023-04-15T04:50:43;5.30;99.90
14755;DHT22;7469;50.906;6.952;2023-04-15T04:53:12;5.30;99.90
14755;DHT22;7469;50.906;6.952;2023-04-15T04:55:43;5.30;99.90
14755;DHT22;7469;50.906;6.952;2023-04-15T04:58:11;5.20;99.90
14755;DHT22;7469;50.906;6.952;2023-04-15T05:00:39;5.20;99.90
14755;DHT22;7469;50.906;6.952;2023-04-15T05:03:07;5.20;99.90
14755;DHT22;7469;50.906;6.952;2023-04-15T05:05:36;5.20;99.90
14755;DHT22;7469;50.906;6.952;2023-04-15T05:08:05;5.20;99.90
14755;DHT22;7469;50.906;6.952;2023-04-15T05:10:33;5.20;99.90
14755;DHT22;7469;50.906;6.952;2023-04-15T05:13:02;5.20;99.90
14755;DHT22;7469;50.906;6.952;2023-04-15T05:15:30;5.20;99.90
14755;DHT22;7469;50.906;6.952;2023-04-15T05:17:58;5.20;99.90
14755;DHT22;7469;50.906;6.952;2023-04-15T05:20:26;5.20;99.90
14755;DHT22;7469;50.906;6.952;2023-04-15T05:22:54;5.20;99.90
14755;DHT22;7469;50.906;6.952;2023-04-15T05:25:22;5.20;99.90
14755;DHT22;7469;50.906;6.952;2023-04-15T05:27:50;5.20;99.90
14755;DHT22;7469;50.906;6.952;2023-04-15T05:30:19;5.20;99.90
14755;DHT22;7469;50.906;6.952;2023-04-15T05:32:47;5.30;99.90
14755;DHT22;7469;50.906;6.952;2023-04-15T05:35:16;5.30;99.90
14755;DHT22;7469;50.906;6.952;2023-04-15T05:37:44;5.30;99.90
14755;DHT22;7469;50.906;6.952;2023-04-15T05:40:12;5.40;99.90
14755;DHT22;7469;50.906;6.952;2023-04-15T05:42:41;5.40;99.90
14755;DHT22;7469;50.906;6.952;2023-04-15T05:45:10;5.50;99.90
14755;DHT22;7469;50.906;6.952;2023-04-15T05:47:39;5.60;99.90
14755;DHT22;7469;50.906;6.952;2023-04-15T05:50:07;5.70;99.90
14755;DHT22;7469;50.906;6.952;2023-04-15T05:52:35;5.80;99.90
14755;DHT22;7469;50.906;6.952;2023-04-15T05:55:04;5.90;99.90
14755;DHT22;7469;50.906;6.952;2023-04-15T05:57:32;6.00;99.90
14755;DHT22;7469;50.906;6.952;2023-04-15T06:00:00;6.20;99.90
14755;DHT22;7469;50.906;6.952;2023-04-15T06:02:28;6.30;99.90
14755;DHT22;7469;50.906;6.952;2023-04-15T06:04:57;6.40;99.90
14755;DHT22;7469;50.906;6.952;2023-04-15T06:07:26;6.60;99.90
14755;DHT22;7469;50.906;6.952;2023-04-15T06:09:54;6.70;99.90
14755;DHT22;7469;50.906;6.952;2023-04-15T06:12:22;6.80;99.90
14755;DHT22;7469;50.906;6.952;2023-04-15T06:14:50;6.90;99.90
14755;DHT22;7469;50.906;6.952;2023-04-15T06:17:18;7.10;99.90
14755;DHT22;7469;50.906;6.952;2023-04-15T06:19:46;7.20;99.90
14755;DHT22;7469;50.906;6.952;2023-04-15T06:22:17;7.40;99.90
14755;DHT22;7469;50.906;6.952;2023-04-15T06:24:45;7.50;99.90
14755;DHT22;7469;50.906;6.952;2023-04-15T06:27:13;7.70;99.90
14755;DHT22;7469;50.906;6.952;2023-04-15T06:29:41;7.80;99.90
14755;DHT22;7469;50.906;6.952;2023-04-15T06:32:09;7.90;99.90
14755;DHT22;7469;50.906;6.952;2023-04-15T06:34:37;8.10;99.90
14755;DHT22;7469;50.906;6.952;2023-04-15T06:37:05;8.20;99.90
14755;DHT22;7469;50.906;6.952;2023-04-15T06:39:34;8.30;99.90
14755;DHT22;7469;50.906;6.952;2023-04-15T06:42:03;8.40;99.90
14755;DHT22;7469;50.906;6.952;2023-04-15T06:44:31;8.50;99.90
14755;DHT22;7469;50.906;6.952;2023-04-15T06:46:59;8.60;99.90
14755;DHT22;7469;50.906;6.952;2023-04-15T06:49:28;8.80;99.90
14755;DHT22;7469;50.906;6.952;2023-04-15T06:51:55;8.90;99.90
14755;DHT22;7469;50.906;6.952;2023-04-15T06:54:23;9.00;99.90
14755;DHT22;7469;50.906;6.952;2023-04-15T06:56:53;9.10;99.90
14755;DHT22;7469;50.906;6.952;2023-04-15T06:59:21;9.20;99.90
14755;DHT22;7469;50.906;6.952;2023-04-15T07:01:49;9.40;99.90
14755;DHT22;7469;50.906;6.952;2023-04-15T07:04:18;9.50;99.90
14755;DHT22;7469;50.906;6.952;2023-04-15T07:06:46;9.70;99.90
14755;DHT22;7469;50.906;6.952;2023-04-15T07:09:14;9.80;99.90
14755;DHT22;7469;50.906;6.952;2023-04-15T07:11:42;10.00;99.90
14755;DHT22;7469;50.906;6.952;2023-04-15T07:14:11;10.20;99.90
14755;DHT22;7469;50.906;6.952;2023-04-15T07:16:39;10.30;99.90
14755;DHT22;7469;50.906;6.952;2023-04-15T07:19:07;10.50;99.90
14755;DHT22;7469;50.906;6.952;2023-04-15T07:21:35;10.70;99.90
14755;DHT22;7469;50.906;6.952;2023-04-15T07:24:06;10.90;99.90
14755;DHT22;7469;50.906;6.952;2023-04-15T07:26:36;11.10;99.90
14755;DHT22;7469;50.906;6.952;2023-04-15T07:29:03;11.30;99.90
14755;DHT22;7469;50.906;6.952;2023-04-15T07:31:33;11.50;99.90
14755;DHT22;7469;50.906;6.952;2023-04-15T07:34:02;11.70;99.90
14755;DHT22;7469;50.906;6.952;2023-04-15T07:36:30;11.90;99.90
14755;DHT22;7469;50.906;6.952;2023-04-15T07:38:58;12.10;99.90
14755;DHT22;7469;50.906;6.952;2023-04-15T07:41:28;12.20;99.90
14755;DHT22;7469;50.906;6.952;2023-04-15T07:43:56;12.40;99.90
14755;DHT22;7469;50.906;6.952;2023-04-15T07:46:24;12.60;99.90
14755;DHT22;7469;50.906;6.952;2023-04-15T07:48:54;12.70;99.90
14755;DHT22;7469;50.906;6.952;2023-04-15T07:51:23;12.80;99.90
14755;DHT22;7469;50.906;6.952;2023-04-15T07:53:51;12.90;99.90
14755;DHT22;7469;50.906;6.952;2023-04-15T07:56:19;13.10;99.90
14755;DHT22;7469;50.906;6.952;2023-04-15T07:58:47;13.20;99.90
14755;DHT22;7469;50.906;6.952;2023-04-15T08:01:15;13.30;99.90
14755;DHT22;7469;50.906;6.952;2023-04-15T08:03:43;13.30;99.90
14755;DHT22;7469;50.906;6.952;2023-04-15T08:06:13;13.40;99.90
14755;DHT22;7469;50.906;6.952;2023-04-15T08:08:41;13.50;99.90
14755;DHT22;7469;50.906;6.952;2023-04-15T08:11:09;13.70;99.90
14755;DHT22;7469;50.906;6.952;2023-04-15T08:13:37;13.80;99.90
14755;DHT22;7469;50.906;6.952;2023-04-15T08:16:19;14.00;99.90
14755;DHT22;7469;50.906;6.952;2023-04-15T08:18:48;14.20;99.90
14755;DHT22;7469;50.906;6.952;2023-04-15T08:21:18;14.30;99.90
14755;DHT22;7469;50.906;6.952;2023-04-15T08:23:48;14.40;99.70
14755;DHT22;7469;50.906;6.952;2023-04-15T08:26:16;14.50;99.10
14755;DHT22;7469;50.906;6.952;2023-04-15T08:28:45;14.60;98.80
14755;DHT22;7469;50.906;6.952;2023-04-15T08:31:14;14.70;98.60
14755;DHT22;7469;50.906;6.952;2023-04-15T08:33:42;14.80;97.40
14755;DHT22;7469;50.906;6.952;2023-04-15T08:36:10;14.90;96.80
14755;DHT22;7469;50.906;6.952;2023-04-15T08:38:40;14.90;96.20
14755;DHT22;7469;50.906;6.952;2023-04-15T08:41:17;15.00;95.60
14755;DHT22;7469;50.906;6.952;2023-04-15T08:43:51;15.10;94.90
14755;DHT22;7469;50.906;6.952;2023-04-15T08:46:20;15.20;94.30
14755;DHT22;7469;50.906;6.952;2023-04-15T08:48:49;15.30;93.90
14755;DHT22;7469;50.906;6.952;2023-04-15T08:51:17;15.40;93.00
14755;DHT22;7469;50.906;6.952;2023-04-15T08:53:48;15.50;92.30
14755;DHT22;7469;50.906;6.952;2023-04-15T08:56:17;15.50;91.70
14755;DHT22;7469;50.906;6.952;2023-04-15T08:58:46;15.60;91.20
14755;DHT22;7469;50.906;6.952;2023-04-15T09:01:14;15.60;90.20
14755;DHT22;7469;50.906;6.952;2023-04-15T09:03:43;15.60;89.00
14755;DHT22;7469;50.906;6.952;2023-04-15T09:06:11;15.60;87.20
14755;DHT22;7469;50.906;6.952;2023-04-15T09:08:40;15.60;85.90
14755;DHT22;7469;50.906;6.952;2023-04-15T09:11:09;15.60;85.70
14755;DHT22;7469;50.906;6.952;2023-04-15T09:13:38;15.60;84.70
14755;DHT22;7469;50.906;6.952;2023-04-15T09:16:06;15.60;84.00
14755;DHT22;7469;50.906;6.952;2023-04-15T09:18:36;15.70;83.70
14755;DHT22;7469;50.906;6.952;2023-04-15T09:21:05;15.80;82.70
14755;DHT22;7469;50.906;6.952;2023-04-15T09:23:35;16.00;82.00
14755;DHT22;7469;50.906;6.952;2023-04-15T09:26:03;16.20;81.40
14755;DHT22;7469;50.906;6.952;2023-04-15T09:28:33;16.50;81.30
14755;DHT22;7469;50.906;6.952;2023-04-15T09:31:07;16.90;80.60
14755;DHT22;7469;50.906;6.952;2023-04-15T09:33:54;17.30;78.90
14755;DHT22;7469;50.906;6.952;2023-04-15T09:36:22;17.50;77.10
14755;DHT22;7469;50.906;6.952;2023-04-15T09:38:56;17.50;75.80
14755;DHT22;7469;50.906;6.952;2023-04-15T09:41:24;17.50;74.90
14755;DHT22;7469;50.906;6.952;2023-04-15T09:43:54;17.60;74.70
14755;DHT22;7469;50.906;6.952;2023-04-15T09:46:39;18.00;73.40
14755;DHT22;7469;50.906;6.952;2023-04-15T09:49:08;18.40;71.60
14755;DHT22;7469;50.906;6.952;2023-04-15T09:51:37;18.60;69.80
14755;DHT22;7469;50.906;6.952;2023-04-15T09:54:05;18.90;68.60
14755;DHT22;7469;50.906;6.952;2023-04-15T09:56:34;19.70;67.90
14755;DHT22;7469;50.906;6.952;2023-04-15T09:59:05;21.30;65.20
14755;DHT22;7469;50.906;6.952;2023-04-15T10:01:33;23.40;59.20
14755;DHT22;7469;50.906;6.952;2023-04-15T10:04:03;25.50;51.80
14755;DHT22;7469;50.906;6.952;2023-04-15T10:06:32;27.30;44.00
14755;DHT22;7469;50.906;6.952;2023-04-15T10:09:01;28.30;37.10
14755;DHT22;7469;50.906;6.952;2023-04-15T10:11:29;28.60;32.80
14755;DHT22;7469;50.906;6.952;2023-04-15T10:13:58;28.90;29.80
14755;DHT22;7469;50.906;6.952;2023-04-15T10:16:28;28.90;27.50
14755;DHT22;7469;50.906;6.952;2023-04-15T10:19:01;28.10;26.70
14755;DHT22;7469;50.906;6.952;2023-04-15T10:21:30;27.70;26.80
14755;DHT22;7469;50.906;6.952;2023-04-15T10:23:57;28.10;26.60
14755;DHT22;7469;50.906;6.952;2023-04-15T10:26:27;28.60;25.50
14755;DHT22;7469;50.906;6.952;2023-04-15T10:28:57;29.10;24.70
14755;DHT22;7469;50.906;6.952;2023-04-15T10:31:27;29.20;23.80
14755;DHT22;7469;50.906;6.952;2023-04-15T10:33:56;28.50;23.60
14755;DHT22;7469;50.906;6.952;2023-04-15T10:36:25;27.50;24.00
14755;DHT22;7469;50.906;6.952;2023-04-15T10:38:53;26.60;24.80
14755;DHT22;7469;50.906;6.952;2023-04-15T10:41:22;26.40;25.30
14755;DHT22;7469;50.906;6.952;2023-04-15T10:43:51;26.50;25.30
14755;DHT22;7469;50.906;6.952;2023-04-15T10:46:24;26.90;24.80
14755;DHT22;7469;50.906;6.952;2023-04-15T10:49:08;27.30;24.30
14755;DHT22;7469;50.906;6.952;2023-04-15T10:51:39;27.60;24.00
14755;DHT22;7469;50.906;6.952;2023-04-15T10:54:12;27.40;23.70
14755;DHT22;7469;50.906;6.952;2023-04-15T10:56:41;27.10;23.90
14755;DHT22;7469;50.906;6.952;2023-04-15T10:59:10;26.80;24.00
14755;DHT22;7469;50.906;6.952;2023-04-15T11:01:52;26.40;23.90
14755;DHT22;7469;50.906;6.952;2023-04-15T11:04:52;26.10;24.30
14755;DHT22;7469;50.906;6.952;2023-04-15T11:07:39;26.00;24.30
14755;DHT22;7469;50.906;6.952;2023-04-15T11:13:26;25.60;24.40
14755;DHT22;7469;50.906;6.952;2023-04-15T11:15:59;25.40;24.80
14755;DHT22;7469;50.906;6.952;2023-04-15T11:18:30;25.30;25.00
14755;DHT22;7469;50.906;6.952;2023-04-15T11:21:01;25.20;24.60
14755;DHT22;7469;50.906;6.952;2023-04-15T11:23:33;25.20;25.00
14755;DHT22;7469;50.906;6.952;2023-04-15T11:26:03;24.80;25.00
14755;DHT22;7469;50.906;6.952;2023-04-15T11:28:35;24.20;25.70
14755;DHT22;7469;50.906;6.952;2023-04-15T11:31:06;23.40;26.40
14755;DHT22;7469;50.906;6.952;2023-04-15T11:33:36;22.60;27.20
14755;DHT22;7469;50.906;6.952;2023-04-15T11:36:06;21.90;28.10
14755;DHT22;7469;50.906;6.952;2023-04-15T11:38:34;21.20;28.90
14755;DHT22;7469;50.906;6.952;2023-04-15T11:41:03;20.60;29.70
14755;DHT22;7469;50.906;6.952;2023-04-15T11:43:31;20.10;30.50
14755;DHT22;7469;50.906;6.952;2023-04-15T11:46:02;19.70;31.30
14755;DHT22;7469;50.906;6.952;2023-04-15T11:48:31;19.20;32.30
14755;DHT22;7469;50.906;6.952;2023-04-15T11:51:01;18.80;33.10
14755;DHT22;7469;50.906;6.952;2023-04-15T11:53:38;18.30;34.00
14755;DHT22;7469;50.906;6.952;2023-04-15T11:56:08;17.90;35.00
14755;DHT22;7469;50.906;6.952;2023-04-15T11:58:37;17.70;35.80
14755;DHT22;7469;50.906;6.952;2023-04-15T12:01:06;17.50;36.20
14755;DHT22;7469;50.906;6.952;2023-04-15T12:03:38;17.30;36.80
14755;DHT22;7469;50.906;6.952;2023-04-15T12:06:12;17.10;37.40
14755;DHT22;7469;50.906;6.952;2023-04-15T12:09:11;17.00;38.00
14755;DHT22;7469;50.906;6.952;2023-04-15T12:11:44;16.80;38.50
14755;DHT22;7469;50.906;6.952;2023-04-15T12:14:20;16.70;39.20
14755;DHT22;7469;50.906;6.952;2023-04-15T12:16:50;16.60;39.80
14755;DHT22;7469;50.906;6.952;2023-04-15T12:19:23;16.50;40.20
14755;DHT22;7469;50.906;6.952;2023-04-15T12:21:53;16.50;40.80
14755;DHT22;7469;50.906;6.952;2023-04-15T12:24:24;16.40;41.20
14755;DHT22;7469;50.906;6.952;2023-04-15T12:26:53;16.30;42.30
14755;DHT22;7469;50.906;6.952;2023-04-15T12:29:25;16.30;41.90
14755;DHT22;7469;50.906;6.952;2023-04-15T12:31:54;16.10;42.30
14755;DHT22;7469;50.906;6.952;2023-04-15T12:34:27;16.00;42.80
14755;DHT22;7469;50.906;6.952;2023-04-15T12:36:57;15.80;43.40
14755;DHT22;7469;50.906;6.952;2023-04-15T12:39:28;15.60;44.10
14755;DHT22;7469;50.906;6.952;2023-04-15T12:41:57;15.40;44.70
14755;DHT22;7469;50.906;6.952;2023-04-15T12:44:25;15.30;45.30
14755;DHT22;7469;50.906;6.952;2023-04-15T12:46:53;15.20;45.70
14755;DHT22;7469;50.906;6.952;2023-04-15T12:49:22;15.20;46.80
14755;DHT22;7469;50.906;6.952;2023-04-15T12:51:53;15.10;46.60
14755;DHT22;7469;50.906;6.952;2023-04-15T12:54:22;15.00;47.20
14755;DHT22;7469;50.906;6.952;2023-04-15T12:56:52;14.90;47.90
14755;DHT22;7469;50.906;6.952;2023-04-15T12:59:21;14.90;48.50
14755;DHT22;7469;50.906;6.952;2023-04-15T13:01:50;14.80;49.00
14755;DHT22;7469;50.906;6.952;2023-04-15T13:04:19;14.70;49.50
14755;DHT22;7469;50.906;6.952;2023-04-15T13:06:48;14.70;50.10
14755;DHT22;7469;50.906;6.952;2023-04-15T13:09:16;14.60;50.90
14755;DHT22;7469;50.906;6.952;2023-04-15T13:11:44;14.40;51.70
14755;DHT22;7469;50.906;6.952;2023-04-15T13:14:13;14.30;52.70
14755;DHT22;7469;50.906;6.952;2023-04-15T13:16:41;14.10;53.40
14755;DHT22;7469;50.906;6.952;2023-04-15T13:19:09;14.00;54.60
14755;DHT22;7469;50.906;6.952;2023-04-15T13:21:37;13.90;55.60
14755;DHT22;7469;50.906;6.952;2023-04-15T13:24:05;13.80;56.70
14755;DHT22;7469;50.906;6.952;2023-04-15T13:26:34;13.70;57.90
14755;DHT22;7469;50.906;6.952;2023-04-15T13:29:02;13.70;58.80
14755;DHT22;7469;50.906;6.952;2023-04-15T13:31:31;13.60;60.00
14755;DHT22;7469;50.906;6.952;2023-04-15T13:33:59;13.50;61.60
14755;DHT22;7469;50.906;6.952;2023-04-15T13:36:27;13.40;63.10
14755;DHT22;7469;50.906;6.952;2023-04-15T13:38:55;13.30;64.80
14755;DHT22;7469;50.906;6.952;2023-04-15T13:41:24;13.20;66.30
14755;DHT22;7469;50.906;6.952;2023-04-15T13:43:51;13.20;67.50
14755;DHT22;7469;50.906;6.952;2023-04-15T13:46:19;13.10;68.90
14755;DHT22;7469;50.906;6.952;2023-04-15T13:48:49;13.00;70.70
14755;DHT22;7469;50.906;6.952;2023-04-15T13:51:17;13.00;72.60
14755;DHT22;7469;50.906;6.952;2023-04-15T13:53:45;12.90;74.40
14755;DHT22;7469;50.906;6.952;2023-04-15T13:56:13;12.80;76.20
14755;DHT22;7469;50.906;6.952;2023-04-15T13:58:41;12.80;77.40
14755;DHT22;7469;50.906;6.952;2023-04-15T14:01:09;12.70;79.10
14755;DHT22;7469;50.906;6.952;2023-04-15T14:03:37;12.70;80.10
14755;DHT22;7469;50.906;6.952;2023-04-15T14:06:07;12.70;80.80
14755;DHT22;7469;50.906;6.952;2023-04-15T14:08:35;12.60;81.40
14755;DHT22;7469;50.906;6.952;2023-04-15T14:11:03;12.70;81.90
14755;DHT22;7469;50.906;6.952;2023-04-15T14:13:31;12.70;82.60
14755;DHT22;7469;50.906;6.952;2023-04-15T14:15:59;12.70;83.60
14755;DHT22;7469;50.906;6.952;2023-04-15T14:18:27;12.80;84.10
14755;DHT22;7469;50.906;6.952;2023-04-15T14:20:56;12.80;85.30
14755;DHT22;7469;50.906;6.952;2023-04-15T14:23:26;12.80;84.90
14755;DHT22;7469;50.906;6.952;2023-04-15T14:25:54;12.90;85.20
14755;DHT22;7469;50.906;6.952;2023-04-15T14:28:23;12.90;86.40
14755;DHT22;7469;50.906;6.952;2023-04-15T14:30:51;13.00;86.00
14755;DHT22;7469;50.906;6.952;2023-04-15T14:33:19;13.00;86.40
14755;DHT22;7469;50.906;6.952;2023-04-15T14:35:48;13.10;86.60
14755;DHT22;7469;50.906;6.952;2023-04-15T14:38:16;13.20;87.10
14755;DHT22;7469;50.906;6.952;2023-04-15T14:40:45;13.20;87.50
14755;DHT22;7469;50.906;6.952;2023-04-15T14:43:13;13.20;87.70
14755;DHT22;7469;50.906;6.952;2023-04-15T14:45:41;13.20;87.90
14755;DHT22;7469;50.906;6.952;2023-04-15T14:48:11;13.20;88.30
14755;DHT22;7469;50.906;6.952;2023-04-15T14:50:39;13.20;88.60
14755;DHT22;7469;50.906;6.952;2023-04-15T14:53:07;13.20;89.00
14755;DHT22;7469;50.906;6.952;2023-04-15T14:55:36;13.10;89.50
14755;DHT22;7469;50.906;6.952;2023-04-15T14:58:05;13.10;90.20
14755;DHT22;7469;50.906;6.952;2023-04-15T15:00:35;13.00;90.50
14755;DHT22;7469;50.906;6.952;2023-04-15T15:03:05;13.00;90.70
14755;DHT22;7469;50.906;6.952;2023-04-15T15:05:38;13.00;91.20
14755;DHT22;7469;50.906;6.952;2023-04-15T15:08:07;13.00;91.60
14755;DHT22;7469;50.906;6.952;2023-04-15T15:10:36;13.00;92.00
14755;DHT22;7469;50.906;6.952;2023-04-15T15:13:17;13.10;92.30
14755;DHT22;7469;50.906;6.952;2023-04-15T15:15:45;13.10;92.50
14755;DHT22;7469;50.906;6.952;2023-04-15T15:18:15;13.10;92.70
14755;DHT22;7469;50.906;6.952;2023-04-15T15:20:44;13.10;92.90
14755;DHT22;7469;50.906;6.952;2023-04-15T15:23:12;13.10;93.10
14755;DHT22;7469;50.906;6.952;2023-04-15T15:25:40;13.10;93.40
14755;DHT22;7469;50.906;6.952;2023-04-15T15:28:08;13.10;93.60
14755;DHT22;7469;50.906;6.952;2023-04-15T15:30:38;13.10;93.80
14755;DHT22;7469;50.906;6.952;2023-04-15T15:33:06;13.00;94.00
14755;DHT22;7469;50.906;6.952;2023-04-15T15:35:34;12.90;94.70
14755;DHT22;7469;50.906;6.952;2023-04-15T15:38:02;12.80;95.10
14755;DHT22;7469;50.906;6.952;2023-04-15T15:40:30;12.70;95.50
14755;DHT22;7469;50.906;6.952;2023-04-15T15:42:58;12.70;95.90
14755;DHT22;7469;50.906;6.952;2023-04-15T15:45:26;12.60;96.30
14755;DHT22;7469;50.906;6.952;2023-04-15T15:47:56;12.60;96.90
14755;DHT22;7469;50.906;6.952;2023-04-15T15:50:25;12.50;97.60
14755;DHT22;7469;50.906;6.952;2023-04-15T15:52:53;12.40;98.20
14755;DHT22;7469;50.906;6.952;2023-04-15T15:55:21;12.40;98.60
14755;DHT22;7469;50.906;6.952;2023-04-15T15:57:50;12.40;99.00
14755;DHT22;7469;50.906;6.952;2023-04-15T16:00:18;12.30;99.30
14755;DHT22;7469;50.906;6.952;2023-04-15T16:02:46;12.30;99.50
14755;DHT22;7469;50.906;6.952;2023-04-15T16:05:34;12.30;99.70
14755;DHT22;7469;50.906;6.952;2023-04-15T16:08:02;12.30;99.90